Time;durP1;ratioP1;P1;durP2;ratioP2;P2;SDS_P1;SDS_P2;PMS_P1;PMS_P2;Temp;Humidity;BMP_temperature;BMP_pressure;BME280_temperature;BME280_humidity;BME280_pressure;Samples;Min_cycle;Max_cycle;Signal;HPM_P1;HPM_P2
2024/01/14 00:00:47;;;;;;;12.10;8.07;;;2.20;99.90;;;-141.84;91.65;73607.09;5110724;27;20215;-60
2024/01/14 00:03:15;;;;;;;10.30;8.57;;;2.10;99.90;;;-141.84;91.82;74662.09;5111328;28;20272;-59
2024/01/14 00:05:44;;;;;;;11.73;9.30;;;2.20;99.90;;;-141.84;92.82;77036.81;5110114;28;20703;-59
2024/01/14 00:08:12;;;;;;;11.13;8.53;;;2.10;99.90;;;-141.84;93.40;80469.50;5111671;28;20323;-59
2024/01/14 00:10:40;;;;;;;11.50;8.83;;;2.10;99.90;;;-141.84;92.24;75981.22;5110505;28;20302;-58
2024/01/14 00:13:09;;;;;;;10.93;8.70;;;2.10;99.90;;;-141.84;91.82;74398.31;5110643;28;20275;-58
2024/01/14 00:15:37;;;;;;;10.50;8.10;;;2.10;99.90;;;-141.84;91.17;72288.75;5110543;28;20251;-59
2024/01/14 00:18:07;;;;;;;10.27;8.47;;;2.20;99.90;;;-141.84;92.03;74662.09;5110874;28;20219;-60
2024/01/14 00:20:35;;;;;;;10.40;8.03;;;2.10;99.90;;;-141.84;91.83;74134.56;5110855;28;20668;-60
2024/01/14 00:23:04;;;;;;;11.60;8.40;;;2.20;99.90;;;-141.84;91.72;74134.56;5111499;28;20278;-59
2024/01/14 00:25:32;;;;;;;11.07;8.63;;;2.20;99.90;;;-141.84;91.95;75189.69;5110688;28;20326;-60
2024/01/14 00:28:02;;;;;;;10.37;8.43;;;2.10;99.90;;;-141.84;92.43;76245.09;5102473;28;20243;-59
2024/01/14 00:30:30;;;;;;;11.57;8.70;;;2.10;99.90;;;-141.84;93.87;81790.53;5110298;28;20758;-61
2024/01/14 00:32:59;;;;;;;11.37;8.83;;;2.00;99.90;;;-141.84;92.99;79677.06;5102402;28;20251;-60
2024/01/14 00:35:29;;;;;;;11.37;9.03;;;2.00;99.90;;;-141.84;93.26;78884.81;5110553;28;20668;-60
2024/01/14 00:37:59;;;;;;;12.60;8.50;;;2.00;99.90;;;-141.84;92.71;78092.72;5102673;28;20239;-59
2024/01/14 00:40:29;;;;;;;12.07;9.50;;;2.00;99.90;;;-141.84;93.95;80997.84;5110801;28;20226;-59
2024/01/14 00:42:57;;;;;;;11.33;8.70;;;1.90;99.90;;;-141.84;93.62;80997.84;5110924;28;20730;-59
2024/01/14 00:45:25;;;;;;;12.17;9.03;;;2.00;99.90;;;-141.84;93.74;82054.78;5110094;28;20996;-60
2024/01/14 00:47:54;;;;;;;11.77;8.73;;;2.00;99.90;;;-141.84;92.97;79148.88;5108018;28;20234;-60
2024/01/14 00:50:23;;;;;;;12.90;9.23;;;2.00;99.90;;;-141.84;91.87;75189.69;5111371;28;20195;-58
2024/01/14 00:52:52;;;;;;;12.83;9.30;;;2.10;99.90;;;-141.84;91.00;70707.31;5108883;28;20256;-59
2024/01/14 00:55:21;;;;;;;12.73;8.63;;;2.20;99.90;;;-141.84;91.74;72816.03;5103743;28;20302;-59
2024/01/14 00:57:49;;;;;;;12.63;8.77;;;2.20;99.90;;;-141.84;91.23;72552.38;5110369;28;20720;-58
2024/01/14 01:00:18;;;;;;;11.83;9.53;;;2.10;99.90;;;-141.84;90.26;68336.31;5110107;28;20262;-59
2024/01/14 01:02:46;;;;;;;11.37;8.93;;;2.20;99.90;;;-141.84;90.33;68599.69;5110429;28;20518;-59
2024/01/14 01:05:15;;;;;;;12.13;9.27;;;2.20;99.90;;;-141.84;89.88;66493.19;5110543;28;20235;-59
2024/01/14 01:07:43;;;;;;;12.13;8.90;;;2.20;99.90;;;-141.84;90.69;68863.09;5110268;28;20719;-58
2024/01/14 01:10:13;;;;;;;10.80;8.97;;;2.20;99.90;;;-141.84;89.96;67546.31;5110462;28;20219;-59
2024/01/14 01:12:41;;;;;;;11.60;8.60;;;2.20;99.90;;;-141.84;89.21;63598.59;5110307;28;20274;-59
2024/01/14 01:15:10;;;;;;;10.87;8.37;;;2.20;99.90;;;-141.84;88.93;62020.59;5110503;28;20223;-59
2024/01/14 01:17:39;;;;;;;10.97;8.83;;;2.30;99.90;;;-141.84;90.10;67019.72;5110127;28;20252;-60
2024/01/14 01:20:09;;;;;;;11.20;8.07;;;2.10;99.90;;;-141.84;90.47;69126.50;5110486;28;20196;-59
2024/01/14 01:22:37;;;;;;;12.60;9.13;;;2.10;99.90;;;-141.84;90.12;67546.31;5110338;28;20288;-59
2024/01/14 01:25:06;;;;;;;10.50;8.27;;;2.20;99.90;;;-141.84;89.75;65966.75;5113341;28;20250;-59
2024/01/14 01:27:36;;;;;;;11.77;8.47;;;2.10;99.90;;;-141.84;91.96;72816.03;5113390;28;20280;-60
2024/01/14 01:30:06;;;;;;;12.23;8.57;;;2.00;99.90;;;-141.84;91.44;72816.03;5113940;28;20417;-59
2024/01/14 01:32:35;;;;;;;10.03;8.30;;;2.10;99.90;;;-141.84;90.74;71761.53;5113379;27;20234;-58
2024/01/14 01:35:04;;;;;;;12.03;8.33;;;2.20;99.90;;;-141.84;90.49;68863.09;5106378;28;20197;-59
2024/01/14 01:37:32;;;;;;;12.70;8.37;;;2.10;99.90;;;-141.84;89.99;66756.44;5113375;28;20767;-59
2024/01/14 01:40:01;;;;;;;10.77;8.27;;;2.10;99.90;;;-141.84;90.30;68863.09;5111816;28;20223;-59
2024/01/14 01:42:29;;;;;;;11.30;8.30;;;2.20;99.90;;;-141.84;88.59;61231.81;5113860;28;20211;-59
2024/01/14 01:44:59;;;;;;;11.57;8.23;;;2.20;99.90;;;-141.84;87.06;53877.56;5113575;28;20700;-58
2024/01/14 01:47:27;;;;;;;10.30;7.90;;;2.30;99.90;;;-141.84;87.14;52303.44;5114213;28;20198;-58
2024/01/14 01:49:56;;;;;;;10.97;8.43;;;2.40;99.90;;;-141.84;86.48;49419.16;5113784;28;20264;-59
2024/01/14 01:52:27;;;;;;;11.50;8.50;;;2.40;99.90;;;-141.84;87.49;54402.44;5107587;28;20233;-59
2024/01/14 01:54:57;;;;;;;9.63;7.93;;;2.40;99.90;;;-141.84;86.60;49681.28;5112893;28;20294;-59
2024/01/14 01:57:28;;;;;;;11.80;8.93;;;2.40;99.90;;;-141.84;85.72;44442.13;5113499;28;20314;-59
2024/01/14 01:59:58;;;;;;;10.53;8.33;;;2.50;99.90;;;-141.84;86.07;45227.56;5113550;27;20227;-59
2024/01/14 02:02:27;;;;;;;10.80;8.13;;;2.50;99.90;;;-141.84;85.98;46275.03;5111425;28;20184;-59
2024/01/14 02:04:56;;;;;;;11.33;7.90;;;2.50;99.90;;;-141.84;86.24;46013.16;5111777;28;20258;-58
2024/01/14 02:07:24;;;;;;;10.47;8.17;;;2.50;99.90;;;-141.84;86.43;48894.97;5112243;28;20837;-60
2024/01/14 02:09:54;;;;;;;11.90;8.70;;;2.50;99.90;;;-141.84;85.36;41563.59;5110905;27;20298;-59
2024/01/14 02:12:22;;;;;;;9.93;7.83;;;2.50;99.90;;;-141.84;85.26;40778.88;5113185;28;20223;-60
2024/01/14 02:14:50;;;;;;;10.43;8.33;;;2.50;99.90;;;-141.84;85.23;40958.69;5113201;28;20276;-60
2024/01/14 02:17:20;;;;;;;10.43;8.73;;;2.50;99.90;;;-141.84;84.92;37535.50;5113540;28;20219;-60
2024/01/14 02:19:49;;;;;;;11.23;8.13;;;2.60;99.90;;;-141.84;84.21;33132.22;5112906;28;20219;-59
2024/01/14 02:22:23;;;;;;;9.13;7.67;;;2.50;99.90;;;-141.84;84.42;32946.66;5112113;27;20764;-60
2024/01/14 02:24:53;;;;;;;11.50;8.53;;;2.60;99.90;;;-141.84;85.52;41040.44;5112794;28;20223;-58
2024/01/14 02:27:22;;;;;;;10.80;8.20;;;2.50;99.90;;;-141.84;85.41;40255.84;5105934;28;20235;-59
2024/01/14 02:29:54;;;;;;;11.00;8.50;;;2.60;99.90;;;-141.84;84.78;36818.97;5105596;28;20228;-60
2024/01/14 02:32:23;;;;;;;10.43;8.23;;;2.50;99.90;;;-141.84;83.59;29768.84;5113203;28;20218;-59
2024/01/14 02:34:52;;;;;;;12.47;8.30;;;2.50;99.90;;;-141.84;83.82;29630.28;5110141;27;20250;-59
2024/01/14 02:37:20;;;;;;;11.27;8.33;;;2.60;99.90;;;-141.84;84.71;35092.50;5111581;28;20668;-59
2024/01/14 02:39:48;;;;;;;9.20;7.87;;;2.50;99.90;;;-141.84;84.75;35663.81;5112488;28;20616;-60
2024/01/14 02:42:18;;;;;;;11.30;8.43;;;2.60;99.90;;;-141.84;84.87;36325.03;5111243;28;20235;-59
2024/01/14 02:44:46;;;;;;;11.03;7.70;;;2.50;99.90;;;-141.84;83.85;31574.50;5112398;28;20556;-59
2024/01/14 02:47:15;;;;;;;11.10;8.10;;;2.60;99.90;;;-141.84;84.05;31670.31;5113011;28;20823;-58
2024/01/14 02:49:43;;;;;;;11.43;8.27;;;2.60;99.90;;;-141.84;83.84;30997.66;5106629;28;20247;-60
2024/01/14 02:52:12;;;;;;;11.33;8.60;;;2.60;99.90;;;-141.84;84.10;32826.34;5112429;28;20715;-60
2024/01/14 02:54:40;;;;;;;13.40;8.80;;;2.60;99.90;;;-141.84;85.15;39054.75;5112480;28;20223;-59
2024/01/14 02:57:08;;;;;;;11.80;8.93;;;2.70;99.90;;;-141.84;86.02;44180.38;5112390;28;20302;-61
2024/01/14 02:59:38;;;;;;;11.10;8.33;;;2.60;99.90;;;-141.84;86.36;47584.78;5112628;28;20199;-60
2024/01/14 03:02:07;;;;;;;11.17;8.43;;;2.60;99.90;;;-141.84;87.49;54402.44;5112601;28;20223;-60
2024/01/14 03:04:35;;;;;;;11.83;8.90;;;2.60;99.90;;;-141.84;88.58;59917.56;5111892;28;20278;-59
2024/01/14 03:07:03;;;;;;;11.60;8.50;;;2.50;99.90;;;-141.84;90.06;66493.19;5112401;28;20211;-59
2024/01/14 03:09:31;;;;;;;11.97;8.43;;;2.50;99.90;;;-141.84;90.49;69126.50;5111747;28;20231;-59
2024/01/14 03:12:00;;;;;;;11.03;8.13;;;2.40;99.90;;;-141.84;90.53;69653.38;5111723;28;20219;-60
2024/01/14 03:14:28;;;;;;;11.83;8.50;;;2.40;99.90;;;-141.84;90.62;70443.78;5111317;28;20223;-60
2024/01/14 03:16:59;;;;;;;10.33;7.63;;;2.40;99.90;;;-141.84;91.09;72552.38;5112413;28;20269;-60
2024/01/14 03:19:26;;;;;;;13.67;8.40;;;2.50;99.90;;;-141.84;90.47;70443.78;5112254;28;20225;-60
2024/01/14 03:21:55;;;;;;;11.37;7.67;;;2.50;99.90;;;-141.84;89.22;65177.19;5112169;28;20227;-60
2024/01/14 03:24:23;;;;;;;11.20;8.03;;;2.50;99.90;;;-141.84;88.89;62283.53;5105320;28;20253;-59
2024/01/14 03:26:51;;;;;;;13.30;8.80;;;2.50;99.90;;;-141.84;87.72;57290.34;5111621;27;20219;-59
2024/01/14 03:29:19;;;;;;;13.83;8.60;;;2.60;99.90;;;-141.84;86.50;49943.41;5093997;28;20204;-60
2024/01/14 03:31:48;;;;;;;12.97;9.60;;;2.60;99.90;;;-141.84;85.11;41040.44;5102168;28;20220;-60
2024/01/14 03:34:17;;;;;;;12.47;9.47;;;2.70;99.90;;;-141.84;85.37;41563.59;5102470;28;20303;-60
2024/01/14 03:36:46;;;;;;;11.67;8.70;;;2.60;99.90;;;-141.84;85.65;44442.13;5092218;28;20223;-66
2024/01/14 03:39:14;;;;;;;13.03;9.47;;;2.60;99.90;;;-141.84;85.64;42610.09;5077984;28;20267;-59
2024/01/14 03:41:42;;;;;;;12.23;9.43;;;2.60;99.90;;;-141.84;84.74;37127.22;5083756;28;20860;-59
2024/01/14 03:44:10;;;;;;;14.03;9.60;;;2.60;99.90;;;-141.84;85.33;41563.59;5089302;28;20236;-58
2024/01/14 03:46:39;;;;;;;12.23;9.07;;;2.60;99.90;;;-141.84;85.65;42348.44;5077208;28;20301;-59
2024/01/14 03:49:08;;;;;;;13.77;9.53;;;2.60;99.90;;;-141.84;84.56;34590.59;5082203;28;20219;-58
2024/01/14 03:51:37;;;;;;;13.63;9.87;;;2.70;99.90;;;-141.84;86.23;46013.16;5080715;28;20223;-59
2024/01/14 03:54:06;;;;;;;13.80;10.03;;;2.60;99.90;;;-141.84;86.68;49943.41;5079425;28;20311;-60
2024/01/14 03:56:34;;;;;;;12.17;9.23;;;2.50;99.90;;;-141.84;86.89;51254.38;5079107;28;20677;-60
2024/01/14 03:59:02;;;;;;;14.77;10.27;;;2.50;99.90;;;-141.84;86.19;48108.81;5082439;28;20284;-58
2024/01/14 04:01:30;;;;;;;13.73;9.00;;;2.50;99.90;;;-141.84;85.08;39289.63;5107308;28;20306;-59
2024/01/14 04:03:59;;;;;;;13.03;9.67;;;2.50;99.90;;;-141.84;85.10;38862.75;5110872;27;20218;-60
2024/01/14 04:06:27;;;;;;;13.23;9.87;;;2.50;99.90;;;-141.84;85.09;40219.06;5103018;28;20227;-59
2024/01/14 04:08:57;;;;;;;14.13;9.77;;;2.50;99.90;;;-141.84;84.67;36412.78;5111000;27;20672;-59
2024/01/14 04:11:25;;;;;;;13.73;9.47;;;2.60;99.90;;;-141.84;84.74;37341.56;5111406;28;20195;-60
2024/01/14 04:13:53;;;;;;;13.03;9.13;;;2.60;99.90;;;-141.84;84.46;34768.09;5089157;28;20223;-60
2024/01/14 04:16:22;;;;;;;12.77;8.83;;;2.60;99.90;;;-141.84;83.97;31939.41;5089157;28;20712;-60
2024/01/14 04:18:50;;;;;;;13.47;9.00;;;2.70;99.90;;;-141.84;84.76;36645.47;5092839;28;20334;-59
2024/01/14 04:21:23;;;;;;;14.77;9.20;;;2.60;99.90;;;-141.84;84.05;33564.59;5105174;28;20219;-59
2024/01/14 04:23:51;;;;;;;10.57;8.20;;;2.70;99.90;;;-141.84;83.83;31287.09;5111032;28;20219;-59
2024/01/14 04:26:22;;;;;;;11.57;8.60;;;2.70;99.90;;;-141.84;84.72;36433.22;5111177;28;20202;-59
2024/01/14 04:28:51;;;;;;;14.00;8.70;;;2.60;99.90;;;-141.84;84.99;38384.91;5098712;28;20867;-59
2024/01/14 04:31:20;;;;;;;11.80;8.70;;;2.60;99.90;;;-141.84;84.22;33236.22;5109393;28;20341;-58
2024/01/14 04:33:49;;;;;;;11.30;8.53;;;2.70;99.90;;;-141.84;85.06;37243.56;5101963;28;20596;-60
2024/01/14 04:36:18;;;;;;;11.87;8.67;;;2.70;99.90;;;-141.84;85.20;40758.47;5110929;28;20230;-60
2024/01/14 04:38:46;;;;;;;10.73;8.13;;;2.60;99.90;;;-141.84;84.76;36420.97;5110319;28;20203;-59
2024/01/14 04:41:15;;;;;;;10.60;8.07;;;2.60;99.90;;;-141.84;85.33;40176.16;5108503;28;20657;-59
2024/01/14 04:43:45;;;;;;;12.07;8.20;;;2.60;99.90;;;-141.84;84.92;39087.41;5110656;28;20219;-59
2024/01/14 04:46:13;;;;;;;12.20;8.67;;;2.60;99.90;;;-141.84;86.22;46798.88;5110549;28;20274;-59
2024/01/14 04:48:41;;;;;;;15.50;9.03;;;2.80;99.90;;;-141.84;87.46;54664.88;5110543;28;20302;-60
2024/01/14 04:51:11;;;;;;;10.27;7.97;;;2.60;99.90;;;-141.84;90.06;65966.75;5102688;28;20219;-58
2024/01/14 04:53:39;;;;;;;11.57;8.27;;;2.60;99.90;;;-141.84;93.32;79412.97;5103326;28;20219;-58
2024/01/14 04:56:08;;;;;;;11.60;8.60;;;2.50;99.90;;;-141.84;94.76;85491.75;5110259;28;20290;-58
2024/01/14 04:58:38;;;;;;;13.93;9.17;;;2.40;99.90;;;-141.84;96.81;91049.97;5112148;28;20213;-59
2024/01/14 05:01:08;;;;;;;11.20;8.37;;;2.40;99.90;;;-141.84;98.25;95555.09;5113288;28;20333;-59
2024/01/14 05:03:37;;;;;;;11.33;8.47;;;2.40;99.90;;;-141.84;99.16;97942.19;5114153;28;20909;-57
2024/01/14 05:06:06;;;;;;;13.10;8.60;;;2.30;99.90;;;-141.84;100.00;100330.69;5112614;27;20235;-59
2024/01/14 05:08:34;;;;;;;12.80;8.57;;;2.20;99.90;;;-141.84;100.00;104314.66;5113908;27;20881;-58
2024/01/14 05:11:03;;;;;;;13.03;9.13;;;2.20;99.90;;;-141.84;100.00;103783.25;5115296;28;20252;-57
2024/01/14 05:13:31;;;;;;;12.47;9.13;;;2.20;99.90;;;-141.84;100.00;105111.94;5114388;28;20689;-58
2024/01/14 05:15:59;;;;;;;13.27;9.40;;;2.20;99.90;;;-141.84;100.00;105643.53;5112225;28;20325;-59
2024/01/14 05:18:29;;;;;;;13.70;9.50;;;2.10;99.90;;;-141.84;100.00;106441.06;5115378;28;20672;-58
2024/01/14 05:20:57;;;;;;;14.23;8.90;;;2.10;99.90;;;-141.84;100.00;106706.94;5114759;28;20223;-59
2024/01/14 05:23:26;;;;;;;14.17;10.10;;;2.10;99.90;;;-141.84;100.00;105909.34;5115339;28;20195;-58
2024/01/14 05:25:54;;;;;;;12.67;9.20;;;2.10;99.90;;;-141.84;100.00;101923.81;5114725;28;20260;-60
2024/01/14 05:28:22;;;;;;;13.20;9.63;;;2.20;99.90;;;-141.84;100.00;101392.69;5089926;28;20229;-59
2024/01/14 05:30:51;;;;;;;14.07;9.53;;;2.20;99.90;;;-141.84;100.00;101923.81;5085684;28;20266;-59
2024/01/14 05:33:19;;;;;;;14.67;9.83;;;2.20;99.90;;;-141.84;100.00;101392.69;5093986;28;20224;-58
2024/01/14 05:35:49;;;;;;;13.23;9.33;;;2.20;99.90;;;-141.84;100.00;102455.00;5092932;28;20354;-59
2024/01/14 05:38:17;;;;;;;13.00;9.83;;;2.10;99.90;;;-141.84;100.00;104048.94;5093393;28;20598;-58
2024/01/14 05:40:45;;;;;;;10.97;8.67;;;2.10;99.90;;;-141.84;100.00;104846.16;5093408;28;20235;-58
2024/01/14 05:43:13;;;;;;;14.00;9.40;;;2.10;99.90;;;-141.84;100.00;104314.66;5090261;28;20225;-59
2024/01/14 05:45:42;;;;;;;14.03;10.00;;;2.10;99.90;;;-141.84;100.00;101392.69;5082150;28;20224;-59
2024/01/14 05:48:10;;;;;;;11.80;8.57;;;2.20;99.90;;;-141.84;100.00;101392.69;5092629;28;20272;-57
2024/01/14 05:50:39;;;;;;;12.53;9.47;;;2.20;99.90;;;-141.84;100.00;100861.66;5113160;28;20590;-57
2024/01/14 05:53:08;;;;;;;13.70;9.27;;;2.10;99.90;;;-141.84;99.86;100330.69;5114088;28;20279;-59
2024/01/14 05:55:37;;;;;;;12.77;9.40;;;2.10;99.90;;;-141.84;99.65;99534.38;5113393;28;20219;-58
2024/01/14 05:58:06;;;;;;;12.37;8.70;;;2.10;99.90;;;-141.84;99.56;99268.97;5113757;28;20636;-59
2024/01/14 06:00:34;;;;;;;13.70;9.53;;;2.10;99.90;;;-141.84;100.00;100330.69;5113810;28;20219;-59
2024/01/14 06:03:03;;;;;;;13.33;9.37;;;2.00;99.90;;;-141.84;100.00;100861.66;5113200;28;20313;-59
2024/01/14 06:05:31;;;;;;;14.03;9.83;;;2.00;99.90;;;-141.84;100.00;102986.25;5109496;27;20323;-60
2024/01/14 06:08:00;;;;;;;13.40;9.10;;;1.90;99.90;;;-141.84;100.00;106175.19;5110970;28;20298;-59
2024/01/14 06:10:29;;;;;;;15.07;10.20;;;1.90;99.90;;;-141.84;100.00;106972.81;5111733;28;20224;-60
2024/01/14 06:12:57;;;;;;;15.07;10.20;;;2.00;99.90;;;-141.84;100.00;106706.94;5106411;27;20306;-59
2024/01/14 06:15:26;;;;;;;14.20;9.83;;;1.90;99.90;;;-141.84;100.00;106175.19;5112075;28;20223;-59
2024/01/14 06:17:54;;;;;;;15.27;10.30;;;1.90;99.90;;;-141.84;100.00;108036.56;5112461;28;20235;-59
2024/01/14 06:20:23;;;;;;;13.20;9.20;;;1.90;99.90;;;-141.84;100.00;108302.56;5113254;28;20199;-59
2024/01/14 06:22:51;;;;;;;14.17;9.10;;;1.90;99.90;;;-141.84;100.00;108568.56;5106424;28;20637;-58
2024/01/14 06:25:19;;;;;;;14.43;10.00;;;2.00;99.90;;;-141.84;100.00;108036.56;5113016;28;20764;-58
2024/01/14 06:27:49;;;;;;;13.93;10.30;;;2.00;99.90;;;-141.84;100.00;108036.56;5107660;28;20294;-60
2024/01/14 06:30:17;;;;;;;16.27;10.37;;;2.00;99.90;;;-141.84;100.00;108302.56;5113069;28;20307;-59
2024/01/14 06:32:46;;;;;;;15.10;10.03;;;2.00;99.90;;;-141.84;100.00;107238.72;5113064;28;20197;-60
2024/01/14 06:35:14;;;;;;;15.47;10.47;;;2.00;99.90;;;-141.84;100.00;106175.19;5111289;28;20234;-60
2024/01/14 06:37:46;;;;;;;13.30;9.20;;;2.00;99.90;;;-141.84;100.00;107238.72;5111847;28;20275;-59
2024/01/14 06:40:14;;;;;;;14.10;9.67;;;2.00;99.90;;;-141.84;100.00;106441.06;5106202;28;20243;-59
2024/01/14 06:42:56;;;;;;;16.57;10.60;;;2.00;99.90;;;-141.84;100.00;105377.72;5112691;28;20215;-57
2024/01/14 06:45:24;;;;;;;14.53;9.70;;;2.00;99.90;;;-141.84;100.00;104580.41;5112558;28;20245;-59
2024/01/14 06:47:53;;;;;;;15.67;10.63;;;2.10;99.90;;;-141.84;100.00;104048.94;5112423;28;20223;-60
2024/01/14 06:50:21;;;;;;;15.13;10.40;;;2.10;99.90;;;-141.84;100.00;103783.25;5112439;28;20556;-59
2024/01/14 06:52:49;;;;;;;14.00;9.77;;;2.10;99.90;;;-141.84;100.00;103783.25;5112221;28;20600;-59
2024/01/14 06:55:18;;;;;;;14.90;10.20;;;2.20;99.90;;;-141.84;100.00;104048.94;5112257;28;20215;-59
2024/01/14 06:57:46;;;;;;;13.77;9.80;;;2.10;99.90;;;-141.84;100.00;105377.72;5112266;28;20223;-59
2024/01/14 07:00:16;;;;;;;14.43;9.57;;;2.10;99.90;;;-141.84;100.00;103517.56;5112672;27;20298;-59
2024/01/14 07:02:46;;;;;;;13.77;10.07;;;2.10;99.90;;;-141.84;100.00;104048.94;5104332;28;20180;-59
2024/01/14 07:05:15;;;;;;;16.53;11.10;;;2.20;99.90;;;-141.84;100.00;103783.25;5103569;28;20227;-59
2024/01/14 07:07:44;;;;;;;15.63;11.37;;;2.20;99.90;;;-141.84;100.00;101392.69;5109857;28;20227;-59
2024/01/14 07:10:12;;;;;;;15.83;10.63;;;2.30;99.90;;;-141.84;100.00;100861.66;5107830;28;20692;-58
2024/01/14 07:12:41;;;;;;;14.30;9.47;;;2.20;99.90;;;-141.84;99.37;99003.56;5112237;27;20219;-56
2024/01/14 07:15:10;;;;;;;13.33;9.60;;;2.20;99.90;;;-141.84;99.83;100330.69;5112304;28;20251;-59
2024/01/14 07:17:39;;;;;;;12.50;9.27;;;2.20;99.90;;;-141.84;98.84;98738.19;5111659;28;20213;-59
2024/01/14 07:20:24;;;;;;;12.87;9.37;;;2.20;99.90;;;-141.84;99.36;99268.97;5111930;28;20183;-58
2024/01/14 07:22:53;;;;;;;12.40;8.33;;;2.20;99.90;;;-141.84;98.55;97411.59;5111660;28;20692;-58
2024/01/14 07:25:21;;;;;;;13.50;9.23;;;2.20;99.90;;;-141.84;98.15;96615.84;5111623;28;20219;-59
2024/01/14 07:27:49;;;;;;;12.33;9.10;;;2.20;99.90;;;-141.84;98.07;96350.63;5093404;28;20251;-59
2024/01/14 07:30:18;;;;;;;12.37;8.70;;;2.20;99.90;;;-141.84;98.87;97942.19;5095353;28;20665;-59
2024/01/14 07:32:48;;;;;;;12.47;9.07;;;2.20;99.90;;;-141.84;98.85;98472.84;5111775;28;20270;-59
2024/01/14 07:35:16;;;;;;;11.83;9.40;;;2.20;99.90;;;-141.84;97.92;95555.09;5111517;28;20302;-60
2024/01/14 07:37:45;;;;;;;12.37;9.10;;;2.30;99.90;;;-141.84;96.97;93699.44;5110943;28;20223;-59
2024/01/14 07:40:13;;;;;;;12.40;8.80;;;2.30;99.90;;;-141.84;97.96;95024.81;5111497;28;20223;-59
2024/01/14 07:42:43;;;;;;;10.93;8.27;;;2.30;99.90;;;-141.84;96.97;93964.47;5111574;28;20793;-57
2024/01/14 07:45:11;;;;;;;13.17;8.70;;;2.30;99.90;;;-141.84;96.39;91314.81;5111693;28;20328;-60
2024/01/14 07:47:40;;;;;;;11.47;8.27;;;2.30;99.90;;;-141.84;96.01;90785.09;5111645;28;20211;-60
2024/01/14 07:50:11;;;;;;;11.87;8.20;;;2.30;99.90;;;-141.84;96.48;92109.53;5111608;28;20637;-60
2024/01/14 07:52:39;;;;;;;12.43;9.43;;;2.30;99.90;;;-141.84;97.06;93169.38;5084528;28;20212;-59
2024/01/14 07:55:08;;;;;;;14.33;10.23;;;2.10;99.90;;;-141.84;98.70;97411.59;5096188;28;20291;-59
2024/01/14 07:57:36;;;;;;;14.77;9.10;;;2.30;99.90;;;-141.84;98.63;97411.59;5111261;28;20314;-60
2024/01/14 08:00:07;;;;;;;11.83;8.00;;;2.30;99.90;;;-141.84;99.53;99268.97;5111383;27;20700;-60
2024/01/14 08:02:35;;;;;;;11.93;8.60;;;2.20;99.90;;;-141.84;98.03;96350.63;5103629;28;20188;-59
2024/01/14 08:05:04;;;;;;;11.37;8.60;;;2.30;99.90;;;-141.84;98.64;97411.59;5104027;28;20272;-59
2024/01/14 08:07:34;;;;;;;13.77;9.13;;;2.30;99.90;;;-141.84;100.00;101127.16;5110332;28;20276;-58
2024/01/14 08:10:04;;;;;;;15.03;10.20;;;2.30;99.90;;;-141.84;100.00;104314.66;5110034;28;20223;-59
2024/01/14 08:12:32;;;;;;;12.50;9.03;;;2.20;99.90;;;-141.84;100.00;104580.41;5110070;28;20231;-59
2024/01/14 08:15:01;;;;;;;16.20;11.23;;;2.20;99.90;;;-141.84;100.00;102455.00;5111774;28;20223;-59
2024/01/14 08:17:29;;;;;;;12.37;9.03;;;2.20;99.90;;;-141.84;100.00;104048.94;5104798;28;20259;-59
2024/01/14 08:19:57;;;;;;;11.97;8.40;;;2.20;99.90;;;-141.84;100.00;102455.00;5111406;28;20202;-59
2024/01/14 08:22:26;;;;;;;12.67;9.50;;;2.30;99.90;;;-141.84;100.00;101923.81;5108294;28;20231;-59
2024/01/14 08:24:55;;;;;;;16.07;10.27;;;2.30;99.90;;;-141.84;99.84;100861.66;5104052;27;20266;-58
2024/01/14 08:27:24;;;;;;;15.33;10.20;;;2.40;99.90;;;-141.84;100.00;101127.16;5105949;28;20778;-60
2024/01/14 08:29:52;;;;;;;11.60;8.50;;;2.50;99.90;;;-141.84;96.87;95289.94;5104624;28;20224;-60
2024/01/14 08:32:20;;;;;;;11.57;7.87;;;2.60;99.90;;;-141.84;92.48;81526.28;5105688;28;20213;-61
2024/01/14 08:34:48;;;;;;;9.43;7.47;;;2.80;99.90;;;-141.84;91.28;75981.22;5105334;28;20275;-61
2024/01/14 08:37:17;;;;;;;8.93;7.07;;;2.90;99.90;;;-141.84;92.20;78620.75;5106294;28;20230;-60
2024/01/14 08:39:45;;;;;;;10.70;7.17;;;2.90;99.90;;;-141.84;91.99;77564.72;5109957;27;20250;-59
2024/01/14 08:42:15;;;;;;;10.07;7.07;;;2.80;99.90;;;-141.84;91.80;77300.78;5108014;28;20217;-62
2024/01/14 08:44:43;;;;;;;10.73;7.20;;;2.90;99.90;;;-141.84;90.47;73607.09;5111180;28;20203;-60
2024/01/14 08:47:12;;;;;;;10.83;7.20;;;2.90;99.90;;;-141.84;90.94;74398.31;5108328;28;20211;-60
2024/01/14 08:49:41;;;;;;;8.40;7.00;;;2.90;99.90;;;-141.84;91.32;76245.09;5106792;28;20219;-61
2024/01/14 08:52:11;;;;;;;10.83;6.77;;;2.90;99.90;;;-141.84;89.56;68863.09;5110179;28;20215;-60
2024/01/14 08:54:39;;;;;;;9.13;6.70;;;3.00;99.90;;;-141.84;88.64;65440.38;5108227;28;20362;-60
2024/01/14 08:57:10;;;;;;;9.13;6.50;;;3.00;99.90;;;-141.84;88.87;64124.72;5105520;27;20344;-60
2024/01/14 08:59:40;;;;;;;9.17;6.43;;;3.00;99.90;;;-141.84;88.81;64914.06;5106926;28;20217;-60
2024/01/14 09:02:08;;;;;;;9.17;7.03;;;2.90;99.90;;;-141.84;88.59;63072.50;5107273;28;20196;-59
2024/01/14 09:04:36;;;;;;;9.27;7.13;;;2.90;99.90;;;-141.84;88.56;62809.50;5100399;28;20286;-59
2024/01/14 09:07:05;;;;;;;9.67;7.17;;;2.90;99.90;;;-141.84;88.73;63861.66;5102250;28;20245;-60
2024/01/14 09:09:33;;;;;;;11.10;7.80;;;3.00;99.90;;;-141.84;88.42;63861.66;5105009;28;20307;-60
2024/01/14 09:12:02;;;;;;;9.53;7.10;;;3.00;99.90;;;-141.84;88.94;64914.06;5108830;28;20302;-59
2024/01/14 09:14:31;;;;;;;9.40;6.43;;;2.90;99.90;;;-141.84;89.24;66756.44;5109936;28;20203;-59
2024/01/14 09:17:01;;;;;;;10.03;6.63;;;3.00;99.90;;;-141.84;88.75;64650.94;5118211;28;20563;-59
2024/01/14 09:19:29;;;;;;;8.47;6.50;;;3.00;99.90;;;-141.84;89.58;67546.31;5111504;28;20225;-60
2024/01/14 09:21:58;;;;;;;8.40;6.43;;;2.90;99.90;;;-141.84;90.56;71234.38;5106816;28;20258;-60
2024/01/14 09:24:26;;;;;;;8.93;7.07;;;2.90;99.90;;;-141.84;93.17;80469.50;5113996;28;20221;-60
2024/01/14 09:26:55;;;;;;;8.63;7.00;;;2.80;99.90;;;-141.84;93.31;83640.72;5094667;28;20230;-60
2024/01/14 09:29:24;;;;;;;8.93;7.47;;;2.80;99.90;;;-141.84;92.87;81262.06;5088612;28;20196;-59
2024/01/14 09:31:52;;;;;;;8.77;7.03;;;2.80;99.90;;;-141.84;91.79;77300.78;5090432;28;20212;-60
2024/01/14 09:34:22;;;;;;;10.53;7.67;;;2.90;99.90;;;-141.84;91.44;77300.78;5091118;28;20223;-60
2024/01/14 09:36:50;;;;;;;10.20;7.67;;;2.80;99.90;;;-141.84;90.08;70443.78;5092557;28;20250;-58
2024/01/14 09:39:19;;;;;;;11.53;8.97;;;2.90;99.90;;;-141.84;90.36;73079.69;5090800;28;20242;-59
2024/01/14 09:42:01;;;;;;;12.10;8.27;;;3.00;99.90;;;-141.84;91.81;77300.78;5089148;28;20557;-58
2024/01/14 09:44:29;;;;;;;11.67;9.90;;;3.00;99.90;;;-141.84;91.35;76245.09;5078822;28;20593;-60
2024/01/14 09:46:58;;;;;;;10.17;7.77;;;3.10;99.90;;;-141.84;89.86;71497.94;5085213;28;20279;-58
2024/01/14 09:49:29;;;;;;;12.27;8.77;;;3.20;99.90;;;-141.84;88.44;64124.72;5086608;28;20235;-59
2024/01/14 09:51:58;;;;;;;11.13;7.80;;;3.20;99.90;;;-141.84;86.96;58341.03;5078972;28;20590;-59
2024/01/14 09:54:27;;;;;;;10.87;7.53;;;3.30;99.90;;;-141.84;87.09;57553.00;5084290;28;20239;-59
2024/01/14 09:57:00;;;;;;;10.77;7.60;;;3.40;99.90;;;-141.84;85.01;46536.97;5081494;28;20222;-59
2024/01/14 09:59:33;;;;;;;12.07;8.20;;;3.50;99.90;;;-141.84;83.98;38960.78;5087210;28;20840;-59
2024/01/14 10:02:03;;;;;;;9.87;7.83;;;3.50;99.90;;;-141.84;82.95;31452.22;5086497;28;20790;-60
2024/01/14 10:04:33;;;;;;;11.23;8.37;;;3.60;99.90;;;-141.84;82.83;29850.34;5085445;28;20232;-59
2024/01/14 10:07:02;;;;;;;12.70;9.37;;;3.50;99.90;;;-141.84;82.89;29420.44;5083778;28;20230;-59
2024/01/14 10:09:30;;;;;;;11.73;8.30;;;3.50;99.90;;;-141.84;82.46;28257.25;5086102;28;20227;-59